Pojoaque, New Mexico
Current Conditions -  °F | °C
As of 11:53 PM on Thursday 18 Dec 2014 (Local Time) from KSAF Reporting Station
Clear Clear  
Wind Chill: 21°   Ceiling: Unl
Heat Index: 29°   Visibility: 10mi
Dew Point: 24°   Wind: 8mph
Humidity: 82%   Direction: 330°NNW
Pressure: 30.11"   Gusts: NA
Location:  35.7017°N, 105.921°W
Report Text: KSAF 190653Z AUTO 33007KT 10SM CLR M02/M04 A3011 RMK AO2 SLP188 T10171044 400441067
Loading
Personal Weather Stations






























Interactive Weather Map New forecast layout! Learn more

10-Day Weather Forecast

Advertisements
Track Severe Weather on mobile